G.commander — DSQR5 — position and weather

sailwx.info

Track history (hours):
 
Tides and Currents Weather Stations Pressure Air Temp Water Temp Dewpoint Dewpoint Depression Visibility Wind Speed Wind Dir Waves Ship Positions

G.commander

Last reported at 2016-Jun-30 01:33 UTC. Time now 2016-Jul-30 03:33 UTC.
Position N 02°08' E 102°03'.
Warning: this ship's position is 30 days out of date.

Length 230 m; draft 8.4 m.

Type: Tanker. MMSI: 441681000.

Date/timePositionNaut miles runAvg speedWind from/ knotsBaromVisibWave heightAir tempDewpointWater temp
2016-Jun-30 01:33N 02°08' E 102°03'1817.7
2016-Jun-30 00:33N 01°57' E 102°17'1717.3
2016-Jun-29 23:33N 01°50' E 102°32'1716.6
2016-Jun-29 22:33N 01°43' E 102°47'1616.1
2016-Jun-29 21:33N 01°35' E 103°02'4615.3
2016-Jun-29 18:32N 01°10' E 103°41'3 2.9
2016-Jun-29 17:20N 01°09' E 103°44'9 9.9
2016-Jun-29 16:26N 01°12' E 103°52'1112.5
2016-Jun-29 15:33N 01°16' E 104°02'  
2016-Jun-26 09:11N 01°14' E 104°05'3 4.5
2016-Jun-26 08:32N 01°14' E 104°02'4 4.5
2016-Jun-26 07:33N 01°14' E 103°58'5 5.1
2016-Jun-26 06:31N 01°12' E 103°53'7 7.8
2016-Jun-26 05:33N 01°08' E 103°46'9011.3
2016-Jun-25 21:31N 01°48' E 102°25'1111.6
2016-Jun-25 20:33N 01°53' E 102°15'  
Track history (hours):
 
Tides and Currents Weather Stations Pressure Air Temp Water Temp Dewpoint Dewpoint Depression Visibility Wind Speed Wind Dir Waves Ship Positions

G.commander

Last reported at 2016-Jun-30 01:33 UTC. Time now 2016-Jul-30 03:33 UTC.
Position N 02°08' E 102°03'.
Warning: this ship's position is 30 days out of date.

Length 230 m; draft 8.4 m.

Type: Tanker. MMSI: 441681000.

Date/timePositionNaut miles runAvg speedWind from/ knotsBaromVisibWave heightAir tempDewpointWater temp
2016-Jun-30 01:33N 02°08' E 102°03'1817.7
2016-Jun-30 00:33N 01°57' E 102°17'1717.3
2016-Jun-29 23:33N 01°50' E 102°32'1716.6
2016-Jun-29 22:33N 01°43' E 102°47'1616.1
2016-Jun-29 21:33N 01°35' E 103°02'4615.3
2016-Jun-29 18:32N 01°10' E 103°41'3 2.9
2016-Jun-29 17:20N 01°09' E 103°44'9 9.9
2016-Jun-29 16:26N 01°12' E 103°52'1112.5
2016-Jun-29 15:33N 01°16' E 104°02'  
2016-Jun-26 09:11N 01°14' E 104°05'3 4.5
2016-Jun-26 08:32N 01°14' E 104°02'4 4.5
2016-Jun-26 07:33N 01°14' E 103°58'5 5.1
2016-Jun-26 06:31N 01°12' E 103°53'7 7.8
2016-Jun-26 05:33N 01°08' E 103°46'9011.3
2016-Jun-25 21:31N 01°48' E 102°25'1111.6
2016-Jun-25 20:33N 01°53' E 102°15'  

Dump ship's entire track history